Covington, Oklahoma
Current Conditions -  °F | °C
As of 3:50 PM on Friday 24 Oct 2014 (Local Time) from KWDG Reporting Station
Broken Clouds Broken Clouds  
Wind Chill: 84°   Ceiling: 20000
Heat Index: 86°   Visibility: 10mi
Dew Point: 64°   Wind: 17mph
Humidity: 51%   Direction: 190°S
Pressure: 30"   Gusts: NA
Location:  36.31°N, 97.59°W
Report Text: KWDG 242050Z 19015KT 10SM BKN200 29/18 A3000
Loading
Personal Weather Stations






























Interactive Weather Map
Tropical Storm Tracking
New forecast layout! Learn more

10-Day Weather Forecast

Advertisements
Track Severe Weather on mobile